Time;durP1;ratioP1;P1;durP2;ratioP2;P2;SDS_P1;SDS_P2;PMS_P1;PMS_P2;Temp;Humidity;BMP_temperature;BMP_pressure;BME280_temperature;BME280_humidity;BME280_pressure;Samples;Min_cycle;Max_cycle;Signal;HPM_P1;HPM_P2
2022/06/17 00:01:52;;;;;;;5.70;1.60;;;19.30;99.90;;;;;;5097155;28;20597;-75
2022/06/17 00:04:18;;;;;;;2.00;1.90;;;19.20;99.90;;;;;;5097548;28;20942;-75
2022/06/17 00:06:55;;;;;;;3.60;1.97;;;19.20;99.90;;;;;;5097749;28;20702;-74
2022/06/17 00:09:23;;;;;;;2.50;1.50;;;19.20;99.90;;;;;;5097269;28;20669;-73
2022/06/17 00:11:49;;;;;;;1.53;1.43;;;19.20;99.90;;;;;;5097212;28;20616;-74
2022/06/17 00:14:24;;;;;;;2.00;1.90;;;19.20;99.90;;;;;;5096756;28;20597;-73
2022/06/17 00:16:50;;;;;;;2.00;1.77;;;19.10;99.90;;;;;;5097146;28;20632;-74
2022/06/17 00:19:18;;;;;;;6.10;1.87;;;19.10;99.90;;;;;;5096592;28;20610;-72
2022/06/17 00:21:48;;;;;;;3.00;2.07;;;19.00;99.90;;;;;;5097567;28;20631;-76
2022/06/17 00:24:20;;;;;;;1.40;1.40;;;18.90;99.90;;;;;;5097205;28;20926;-75
2022/06/17 00:26:47;;;;;;;2.10;1.90;;;18.90;99.90;;;;;;5096942;28;20617;-75
2022/06/17 00:29:17;;;;;;;1.60;1.50;;;18.80;99.90;;;;;;5097208;28;20613;-75
2022/06/17 00:31:44;;;;;;;4.80;1.70;;;18.70;99.90;;;;;;5096779;28;20605;-75
2022/06/17 00:34:10;;;;;;;2.93;1.50;;;18.80;99.90;;;;;;5096448;28;21193;-75
2022/06/17 00:36:37;;;;;;;1.93;1.83;;;18.70;99.90;;;;;;5096391;28;20649;-76
2022/06/17 00:39:19;;;;;;;1.87;1.67;;;18.80;99.90;;;;;;5095458;28;20605;-75
2022/06/17 00:41:48;;;;;;;2.20;2.10;;;18.70;99.90;;;;;;5096706;28;20577;-75
2022/06/17 00:44:28;;;;;;;3.00;1.90;;;18.60;99.90;;;;;;5096507;28;20621;-75
2022/06/17 00:47:28;;;;;;;2.53;2.00;;;18.60;99.90;;;;;;5096793;28;20635;-75
2022/06/17 00:50:15;;;;;;;2.40;2.20;;;18.50;99.90;;;;;;5095666;28;20661;-75
2022/06/17 00:53:13;;;;;;;1.90;1.80;;;18.50;99.90;;;;;;5096055;28;20971;-75
2022/06/17 00:55:46;;;;;;;4.40;1.70;;;18.50;99.90;;;;;;5096306;28;20608;-75
2022/06/17 00:58:22;;;;;;;2.40;2.30;;;18.50;99.90;;;;;;5096350;28;20610;-75
2022/06/17 01:00:53;;;;;;;4.50;1.80;;;18.40;99.90;;;;;;5096686;28;20566;-76
2022/06/17 01:03:30;;;;;;;2.90;1.77;;;18.30;99.90;;;;;;5094492;28;20621;-75
2022/06/17 01:06:13;;;;;;;5.40;3.33;;;18.30;99.90;;;;;;5095869;28;20967;-75
2022/06/17 01:11:50;;;;;;;1.80;1.70;;;18.40;99.90;;;;;;5013388;28;20613;-75
2022/06/17 01:14:18;;;;;;;1.97;1.87;;;18.30;99.90;;;;;;5079330;28;21223;-75
2022/06/17 01:16:46;;;;;;;2.63;2.07;;;18.20;99.90;;;;;;5095526;28;20609;-75
2022/06/17 01:19:22;;;;;;;1.87;1.77;;;18.20;99.90;;;;;;5094085;28;20601;-75
2022/06/17 01:22:26;;;;;;;3.90;2.20;;;18.20;99.90;;;;;;5095257;28;21108;-75
2022/06/17 01:25:01;;;;;;;3.83;1.87;;;18.20;99.90;;;;;;5088606;28;20687;-75
2022/06/17 01:27:32;;;;;;;2.07;1.83;;;18.20;99.90;;;;;;5095339;28;20689;-75
2022/06/17 01:29:59;;;;;;;4.10;1.80;;;18.10;99.90;;;;;;5095252;28;20562;-75
2022/06/17 01:32:29;;;;;;;2.30;2.20;;;18.10;99.90;;;;;;5095280;28;20613;-75
2022/06/17 01:34:56;;;;;;;2.00;1.80;;;18.00;99.90;;;;;;5095672;28;20908;-75
2022/06/17 01:37:23;;;;;;;2.37;2.03;;;18.00;99.90;;;;;;5095178;28;21148;-75
2022/06/17 01:39:49;;;;;;;2.10;1.90;;;18.00;99.90;;;;;;5093775;28;20970;-75
2022/06/17 01:42:15;;;;;;;7.70;1.80;;;18.00;99.90;;;;;;5095201;28;21109;-75
2022/06/17 01:44:42;;;;;;;2.57;2.37;;;18.00;99.90;;;;;;5094117;28;20604;-75
2022/06/17 01:47:17;;;;;;;4.30;2.50;;;18.00;99.90;;;;;;5094711;28;20665;-75
2022/06/17 01:49:48;;;;;;;2.30;2.10;;;17.90;99.90;;;;;;5095174;28;21065;-75
2022/06/17 01:52:21;;;;;;;2.00;1.90;;;17.90;99.90;;;;;;5095083;28;21114;-75
2022/06/17 01:54:53;;;;;;;1.80;1.70;;;17.90;99.90;;;;;;5094953;28;20570;-75
2022/06/17 01:57:25;;;;;;;3.93;2.03;;;17.80;99.90;;;;;;5095070;28;21157;-75
2022/06/17 01:59:57;;;;;;;4.43;2.90;;;17.80;99.90;;;;;;5095032;28;20576;-75
2022/06/17 02:02:24;;;;;;;2.00;1.80;;;17.80;99.90;;;;;;5095383;28;20568;-75
2022/06/17 02:04:57;;;;;;;1.93;1.83;;;17.80;99.90;;;;;;5095215;28;20620;-75
2022/06/17 02:07:37;;;;;;;5.60;2.00;;;17.80;99.90;;;;;;5095668;28;20649;-75
2022/06/17 02:10:04;;;;;;;5.67;3.07;;;17.80;99.90;;;;;;5095466;28;20565;-75
2022/06/17 02:12:31;;;;;;;1.90;1.80;;;17.80;99.90;;;;;;5094989;28;20602;-75
2022/06/17 02:14:58;;;;;;;2.40;2.20;;;17.70;99.90;;;;;;5094635;28;20602;-75
2022/06/17 02:17:34;;;;;;;2.40;2.20;;;17.70;99.90;;;;;;5094662;28;20617;-75
2022/06/17 02:20:01;;;;;;;2.10;2.00;;;17.70;99.90;;;;;;5094836;28;20576;-75
2022/06/17 02:22:32;;;;;;;3.27;2.27;;;17.70;99.90;;;;;;5092601;28;21250;-75
2022/06/17 02:25:03;;;;;;;2.83;2.37;;;17.70;99.90;;;;;;5095526;28;20570;-75
2022/06/17 02:27:32;;;;;;;2.20;2.00;;;17.70;99.90;;;;;;5094727;28;20946;-75
2022/06/17 02:30:00;;;;;;;3.07;2.13;;;17.60;99.90;;;;;;5094388;28;20601;-75
2022/06/17 02:32:26;;;;;;;2.70;2.00;;;17.70;99.90;;;;;;5093709;28;20617;-75
2022/06/17 02:34:59;;;;;;;2.50;2.30;;;17.70;99.90;;;;;;5093619;28;20597;-75
2022/06/17 02:37:27;;;;;;;3.90;2.00;;;17.70;99.90;;;;;;5094807;28;20619;-75
2022/06/17 02:39:57;;;;;;;2.20;1.77;;;17.70;99.90;;;;;;5094759;28;20609;-75
2022/06/17 02:42:30;;;;;;;6.03;2.27;;;17.70;99.90;;;;;;5093947;28;20574;-75
2022/06/17 02:45:06;;;;;;;2.93;2.23;;;17.70;99.90;;;;;;5094023;28;20616;-75
2022/06/17 02:47:33;;;;;;;2.43;2.33;;;17.70;99.90;;;;;;5094193;28;21230;-75
2022/06/17 02:50:00;;;;;;;3.80;2.40;;;17.50;99.90;;;;;;5093986;28;21244;-75
2022/06/17 02:52:34;;;;;;;2.10;1.87;;;17.50;99.90;;;;;;5094323;28;20607;-75
2022/06/17 02:55:11;;;;;;;4.80;2.00;;;17.50;99.90;;;;;;5093723;28;20744;-75
2022/06/17 02:57:39;;;;;;;4.40;2.30;;;17.50;99.90;;;;;;5094267;28;20582;-75
2022/06/17 03:00:11;;;;;;;2.10;1.93;;;17.50;99.90;;;;;;5094265;28;20613;-75
2022/06/17 03:02:50;;;;;;;2.23;2.13;;;17.50;99.90;;;;;;5094305;28;20967;-75
2022/06/17 03:05:27;;;;;;;4.87;1.93;;;17.40;99.90;;;;;;5094420;28;20582;-74
2022/06/17 03:07:56;;;;;;;2.13;1.83;;;17.40;99.90;;;;;;5093738;28;20635;-74
2022/06/17 03:11:12;;;;;;;2.23;2.00;;;17.40;99.90;;;;;;5094334;28;20610;-74
2022/06/17 03:13:51;;;;;;;2.00;1.90;;;17.40;99.90;;;;;;5093901;28;20612;-75
2022/06/17 03:16:19;;;;;;;2.20;2.10;;;17.40;99.90;;;;;;5092691;28;20703;-75
2022/06/17 03:18:48;;;;;;;2.97;2.33;;;17.40;99.90;;;;;;5093575;28;20621;-75
2022/06/17 03:21:20;;;;;;;3.13;2.93;;;17.40;99.90;;;;;;5094128;28;20613;-75
2022/06/17 03:24:00;;;;;;;1.97;1.87;;;17.40;99.90;;;;;;5092100;28;20696;-75
2022/06/17 03:26:31;;;;;;;2.77;2.47;;;17.40;99.90;;;;;;5094315;28;20920;-75
2022/06/17 03:29:01;;;;;;;2.50;2.30;;;17.40;99.90;;;;;;5093975;28;20558;-75
2022/06/17 03:31:43;;;;;;;2.93;2.40;;;17.40;99.90;;;;;;5094146;28;20577;-75
2022/06/17 03:34:21;;;;;;;6.37;1.93;;;17.30;99.90;;;;;;5094376;28;20605;-75
2022/06/17 03:37:16;;;;;;;3.63;2.70;;;17.30;99.90;;;;;;5098325;28;20703;-74
2022/06/17 03:39:49;;;;;;;3.17;2.30;;;17.20;99.90;;;;;;5098106;28;20613;-75
2022/06/17 03:42:26;;;;;;;4.77;2.50;;;17.20;99.90;;;;;;5098656;28;20573;-75
2022/06/17 03:45:00;;;;;;;2.73;2.17;;;17.10;99.90;;;;;;5098202;28;20592;-75
2022/06/17 03:47:44;;;;;;;6.83;2.20;;;17.20;99.90;;;;;;5097560;28;21050;-75
2022/06/17 03:50:21;;;;;;;2.53;2.33;;;17.20;99.90;;;;;;5097742;28;20986;-75
2022/06/17 03:53:31;;;;;;;3.53;2.23;;;17.20;99.90;;;;;;5098045;28;20565;-74
2022/06/17 03:56:16;;;;;;;2.70;2.50;;;17.20;99.90;;;;;;5096226;28;20613;-74
2022/06/17 03:58:43;;;;;;;2.33;2.10;;;17.10;99.90;;;;;;5097314;28;21135;-74
2022/06/17 04:01:29;;;;;;;5.03;2.27;;;17.00;99.90;;;;;;5097051;28;20636;-74
2022/06/17 04:03:58;;;;;;;2.30;2.10;;;17.10;99.90;;;;;;5097105;28;21112;-75
2022/06/17 04:06:36;;;;;;;6.47;2.07;;;17.20;99.90;;;;;;5097070;28;20636;-75
2022/06/17 04:09:02;;;;;;;3.60;2.60;;;17.20;99.90;;;;;;5098543;28;20569;-74
2022/06/17 04:11:35;;;;;;;4.10;2.70;;;17.20;99.90;;;;;;5097287;28;20601;-75
2022/06/17 04:14:05;;;;;;;2.20;2.10;;;17.20;99.90;;;;;;5097688;28;21188;-75
2022/06/17 04:16:42;;;;;;;2.93;2.23;;;17.30;99.90;;;;;;5097571;28;21053;-75
2022/06/17 04:19:19;;;;;;;2.63;2.43;;;17.30;99.90;;;;;;5097879;28;20578;-75
2022/06/17 04:21:46;;;;;;;2.53;2.10;;;17.30;99.90;;;;;;5097719;28;20565;-75
2022/06/17 04:24:16;;;;;;;3.10;2.80;;;17.30;99.90;;;;;;5098106;28;20593;-75
2022/06/17 04:26:45;;;;;;;4.23;3.80;;;17.40;99.90;;;;;;5097552;28;20566;-74
2022/06/17 04:29:18;;;;;;;3.43;2.60;;;17.50;99.90;;;;;;5095541;28;21174;-75
2022/06/17 04:31:53;;;;;;;2.63;2.40;;;17.50;99.90;;;;;;5096502;28;20620;-74
2022/06/17 04:34:20;;;;;;;4.20;2.50;;;17.60;99.90;;;;;;5096271;28;20616;-75
2022/06/17 04:37:02;;;;;;;2.27;2.07;;;17.60;99.90;;;;;;5096999;28;20654;-75
2022/06/17 04:39:46;;;;;;;6.43;2.37;;;17.60;99.90;;;;;;5095581;28;20565;-75
2022/06/17 04:42:17;;;;;;;4.27;2.50;;;17.70;99.90;;;;;;5097248;28;20623;-74
2022/06/17 04:44:43;;;;;;;4.20;2.20;;;17.70;99.90;;;;;;5094605;28;20552;-75
2022/06/17 04:47:13;;;;;;;3.77;2.70;;;17.80;99.90;;;;;;5096796;28;20642;-75
2022/06/17 04:49:54;;;;;;;2.77;2.37;;;17.90;99.90;;;;;;5097165;28;20989;-74
2022/06/17 04:52:36;;;;;;;3.83;2.33;;;17.90;99.90;;;;;;5096852;28;20569;-75
2022/06/17 04:55:06;;;;;;;2.33;2.17;;;17.90;99.90;;;;;;5096404;28;20613;-75
2022/06/17 04:57:33;;;;;;;4.03;2.50;;;18.00;99.90;;;;;;5095221;28;21010;-74
2022/06/17 05:00:00;;;;;;;7.00;3.20;;;18.00;99.90;;;;;;5096783;28;21168;-74
2022/06/17 05:02:30;;;;;;;2.83;2.57;;;18.00;99.90;;;;;;5095369;28;20948;-74
2022/06/17 05:05:03;;;;;;;4.00;2.73;;;18.10;99.90;;;;;;5097532;28;20578;-75
2022/06/17 05:07:39;;;;;;;2.70;2.50;;;18.20;99.90;;;;;;5097497;28;20668;-74
2022/06/17 05:10:12;;;;;;;2.63;2.43;;;18.20;99.90;;;;;;5097453;28;20572;-75
2022/06/17 05:12:51;;;;;;;4.40;2.87;;;18.20;99.90;;;;;;5097527;28;20565;-75
2022/06/17 05:15:20;;;;;;;5.90;2.50;;;18.40;99.90;;;;;;5097463;28;20570;-75
2022/06/17 05:17:48;;;;;;;4.83;2.30;;;18.60;99.90;;;;;;5096919;28;20621;-75
2022/06/17 05:20:18;;;;;;;6.70;3.00;;;18.80;99.90;;;;;;5094648;28;20625;-74
2022/06/17 05:23:00;;;;;;;7.27;2.30;;;18.80;99.90;;;;;;5096456;28;20580;-74
2022/06/17 05:25:35;;;;;;;4.50;2.60;;;18.80;99.90;;;;;;5095899;28;20685;-74
2022/06/17 05:28:03;;;;;;;3.43;2.40;;;19.00;99.90;;;;;;5096054;28;20629;-73
2022/06/17 05:30:34;;;;;;;5.90;3.70;;;19.30;99.90;;;;;;5096006;28;20612;-73
2022/06/17 05:33:00;;;;;;;7.20;3.00;;;19.30;99.90;;;;;;5078074;28;21030;-73
2022/06/17 05:35:27;;;;;;;2.73;2.37;;;19.40;99.90;;;;;;5095158;28;21163;-74
2022/06/17 05:37:53;;;;;;;2.63;2.43;;;19.40;99.90;;;;;;5095463;28;20620;-73
2022/06/17 05:40:20;;;;;;;3.57;3.00;;;19.50;99.90;;;;;;5096322;28;20663;-74
2022/06/17 05:42:47;;;;;;;5.07;2.43;;;19.30;99.90;;;;;;5095365;28;20678;-73
2022/06/17 05:45:17;;;;;;;15.37;2.90;;;19.40;99.90;;;;;;5093366;28;20625;-74
2022/06/17 05:47:43;;;;;;;3.63;2.17;;;19.60;99.90;;;;;;5095601;28;20649;-74
2022/06/17 05:50:12;;;;;;;6.47;2.57;;;19.50;99.90;;;;;;5096217;28;21008;-76
2022/06/17 05:52:54;;;;;;;2.77;2.50;;;19.40;99.90;;;;;;5095526;28;20605;-74
2022/06/17 05:55:22;;;;;;;3.67;2.47;;;19.40;99.90;;;;;;5093081;28;20617;-75
2022/06/17 05:57:49;;;;;;;4.70;2.20;;;19.60;99.90;;;;;;5095249;28;20610;-74
2022/06/17 06:00:17;;;;;;;7.40;2.20;;;19.60;99.90;;;;;;5094464;28;20630;-75
2022/06/17 06:02:44;;;;;;;4.00;2.63;;;19.70;99.90;;;;;;5093707;28;20633;-75
2022/06/17 06:05:16;;;;;;;4.10;3.00;;;19.70;99.90;;;;;;5095166;28;21016;-75
2022/06/17 06:07:43;;;;;;;4.60;2.57;;;19.90;99.90;;;;;;5093815;28;20737;-75
2022/06/17 06:10:10;;;;;;;3.77;2.90;;;20.20;99.90;;;;;;5094139;28;20606;-75
2022/06/17 06:13:01;;;;;;;4.57;2.63;;;20.20;99.90;;;;;;5095311;28;20609;-75
2022/06/17 06:15:26;;;;;;;4.00;2.87;;;20.20;99.90;;;;;;5094945;28;20633;-74
2022/06/17 06:18:02;;;;;;;3.57;2.93;;;20.10;99.90;;;;;;5098004;28;20886;-73
2022/06/17 06:20:29;;;;;;;9.90;3.87;;;20.00;99.90;;;;;;5094069;28;20621;-75
2022/06/17 06:22:56;;;;;;;5.97;2.57;;;19.90;99.90;;;;;;5093623;28;20671;-75
2022/06/17 06:25:23;;;;;;;8.80;2.70;;;20.00;99.90;;;;;;5094176;28;20605;-75
2022/06/17 06:27:50;;;;;;;3.67;3.37;;;20.00;99.90;;;;;;5093958;28;20667;-75
2022/06/17 06:30:23;;;;;;;5.72;2.20;;;20.20;99.90;;;;;;5093756;28;20722;-76
2022/06/17 06:32:51;;;;;;;5.40;2.43;;;20.40;99.90;;;;;;5095278;28;20176;-74
2022/06/17 06:35:20;;;;;;;4.83;3.13;;;20.70;99.90;;;;;;5094934;28;20613;-73
2022/06/17 06:37:46;;;;;;;3.63;2.80;;;20.80;99.90;;;;;;5095056;28;20620;-73
2022/06/17 06:40:13;;;;;;;4.60;2.60;;;20.90;99.90;;;;;;5095155;28;20608;-73
2022/06/17 06:42:39;;;;;;;2.13;1.93;;;20.90;99.90;;;;;;5094233;28;20636;-73
2022/06/17 06:45:07;;;;;;;2.90;2.53;;;21.00;99.90;;;;;;5095013;28;20612;-74
2022/06/17 06:47:33;;;;;;;7.30;2.20;;;21.00;99.90;;;;;;5093731;28;20661;-73
2022/06/17 06:49:59;;;;;;;7.00;2.67;;;21.30;99.90;;;;;;5094675;28;21038;-74
2022/06/17 06:52:26;;;;;;;1.90;1.80;;;21.40;99.90;;;;;;5094910;28;20698;-74
2022/06/17 06:54:52;;;;;;;2.07;1.97;;;21.50;99.90;;;;;;5094435;28;21221;-72
2022/06/17 06:57:19;;;;;;;3.97;1.80;;;21.40;99.90;;;;;;5091601;28;20617;-73
2022/06/17 06:59:45;;;;;;;2.33;2.13;;;21.70;99.90;;;;;;5093818;28;21147;-73
2022/06/17 07:02:12;;;;;;;2.50;2.00;;;21.70;99.90;;;;;;5094130;28;21152;-72
2022/06/17 07:04:38;;;;;;;3.23;1.97;;;21.80;99.90;;;;;;5094072;28;20582;-72
2022/06/17 07:07:05;;;;;;;4.00;2.00;;;21.80;99.90;;;;;;5093471;28;21159;-72
2022/06/17 07:09:31;;;;;;;4.70;2.30;;;21.70;99.90;;;;;;5093966;28;20620;-72
2022/06/17 07:11:57;;;;;;;5.03;2.27;;;21.70;99.90;;;;;;5093493;28;20605;-72
2022/06/17 07:14:23;;;;;;;2.77;2.40;;;21.90;99.90;;;;;;5093982;28;20606;-73
2022/06/17 07:16:50;;;;;;;2.10;1.90;;;22.00;99.90;;;;;;5094256;28;20609;-72
2022/06/17 07:19:17;;;;;;;6.13;3.63;;;22.10;99.90;;;;;;5094595;28;20597;-73
2022/06/17 07:21:43;;;;;;;2.60;2.13;;;22.20;99.90;;;;;;5093812;28;20931;-72
2022/06/17 07:24:10;;;;;;;2.63;2.43;;;22.30;99.90;;;;;;5094129;28;20614;-73
2022/06/17 07:26:36;;;;;;;3.83;2.33;;;22.40;99.90;;;;;;5093747;28;20625;-73
2022/06/17 07:29:03;;;;;;;4.70;2.70;;;22.50;99.90;;;;;;5093793;28;20649;-73
2022/06/17 07:31:29;;;;;;;5.03;2.07;;;23.00;99.90;;;;;;5094065;28;20613;-73
2022/06/17 07:33:57;;;;;;;5.07;2.93;;;22.80;99.90;;;;;;5092158;28;20612;-73
2022/06/17 07:42:00;;;;;;;7.63;3.20;;;22.90;99.90;;;;;;5093737;28;21244;-74
2022/06/17 07:44:26;;;;;;;4.47;2.43;;;22.60;99.90;;;;;;5075742;28;20604;-73
2022/06/17 07:46:53;;;;;;;4.17;2.47;;;22.80;99.90;;;;;;5092426;28;20790;-74
2022/06/17 07:49:19;;;;;;;5.70;2.50;;;22.80;99.90;;;;;;5093654;28;20656;-73
2022/06/17 07:51:46;;;;;;;5.53;2.80;;;22.70;99.90;;;;;;5092914;28;20614;-74
2022/06/17 07:54:13;;;;;;;4.80;3.20;;;22.90;99.90;;;;;;5094364;28;20676;-74
2022/06/17 07:56:40;;;;;;;5.63;2.60;;;23.00;99.90;;;;;;5074640;28;20610;-74
2022/06/17 07:59:07;;;;;;;3.63;2.50;;;22.80;99.90;;;;;;5093458;28;20662;-74
2022/06/17 08:01:33;;;;;;;2.37;2.17;;;23.20;99.90;;;;;;5094142;28;20629;-74
2022/06/17 08:03:59;;;;;;;5.37;3.10;;;23.30;99.90;;;;;;5093747;28;21071;-73
2022/06/17 08:06:26;;;;;;;4.37;2.47;;;23.60;99.90;;;;;;5093455;28;21020;-73
2022/06/17 08:08:53;;;;;;;2.43;2.33;;;22.80;99.90;;;;;;5091820;28;20657;-74
2022/06/17 08:11:19;;;;;;;5.13;3.00;;;23.00;99.90;;;;;;5093650;28;20621;-74
2022/06/17 08:13:46;;;;;;;5.20;2.43;;;23.10;99.90;;;;;;5094275;28;20606;-73
2022/06/17 08:16:14;;;;;;;2.77;2.30;;;22.80;99.90;;;;;;5093355;28;20597;-74
2022/06/17 08:18:42;;;;;;;2.50;2.30;;;22.80;99.90;;;;;;5093711;28;20949;-73
2022/06/17 08:21:11;;;;;;;3.23;2.40;;;23.00;99.90;;;;;;5096803;28;20609;-73
2022/06/17 08:23:38;;;;;;;12.40;2.90;;;23.00;99.90;;;;;;5096216;28;20998;-73
2022/06/17 08:26:05;;;;;;;4.63;3.00;;;23.10;99.90;;;;;;5096945;28;20632;-73
2022/06/17 08:28:32;;;;;;;3.23;2.63;;;23.60;99.90;;;;;;5096908;28;20648;-73
2022/06/17 08:30:58;;;;;;;2.80;2.60;;;23.60;99.90;;;;;;5096745;28;20597;-74
2022/06/17 08:33:28;;;;;;;7.07;2.57;;;23.70;99.90;;;;;;5096903;28;20613;-74
2022/06/17 08:36:04;;;;;;;4.80;2.70;;;23.90;99.90;;;;;;5096892;28;20601;-74
2022/06/17 08:38:34;;;;;;;4.33;2.50;;;24.00;99.90;;;;;;5078593;28;20665;-73
2022/06/17 08:41:08;;;;;;;3.67;2.63;;;23.60;99.90;;;;;;5097226;28;20634;-74
2022/06/17 08:43:44;;;;;;;6.87;2.40;;;23.90;99.90;;;;;;5095639;28;21013;-72
2022/06/17 08:46:35;;;;;;;3.20;2.50;;;24.10;99.90;;;;;;5096320;28;20642;-72
2022/06/17 08:49:40;;;;;;;4.30;2.57;;;24.00;99.90;;;;;;5096180;28;21218;-73
2022/06/17 08:52:21;;;;;;;4.03;2.47;;;24.50;99.90;;;;;;5096641;28;20573;-73
2022/06/17 08:55:07;;;;;;;2.47;2.27;;;24.30;99.90;;;;;;5096624;28;20573;-73
2022/06/17 08:57:50;;;;;;;6.30;2.30;;;24.50;99.90;;;;;;5096751;28;20569;-74
2022/06/17 09:00:21;;;;;;;7.20;2.70;;;24.60;99.90;;;;;;5096492;28;20596;-74
2022/06/17 09:03:06;;;;;;;3.50;2.47;;;24.90;99.90;;;;;;5097343;28;20574;-74
2022/06/17 09:05:42;;;;;;;2.33;2.20;;;25.10;99.90;;;;;;5097295;28;20605;-74
2022/06/17 09:08:31;;;;;;;3.20;2.43;;;24.90;99.90;;;;;;5097190;28;20651;-74
2022/06/17 09:11:12;;;;;;;2.63;2.43;;;25.10;99.90;;;;;;5096535;28;20616;-74
2022/06/17 09:14:21;;;;;;;2.57;2.20;;;25.20;99.90;;;;;;5094713;28;20697;-74
2022/06/17 09:16:57;;;;;;;2.33;2.20;;;24.70;99.90;;;;;;5017935;28;20616;-73
2022/06/17 09:19:29;;;;;;;4.70;2.30;;;25.00;99.90;;;;;;5088139;28;20957;-73
2022/06/17 09:22:22;;;;;;;2.10;2.00;;;25.60;99.90;;;;;;5094681;28;20613;-73
2022/06/17 09:24:49;;;;;;;2.27;2.07;;;25.60;99.90;;;;;;5095930;28;21186;-74
2022/06/17 09:27:25;;;;;;;2.93;2.00;;;25.80;99.90;;;;;;5095750;28;20941;-74
2022/06/17 09:30:04;;;;;;;2.33;2.10;;;25.60;99.90;;;;;;5095960;28;20632;-73
2022/06/17 09:32:36;;;;;;;4.87;2.17;;;25.70;99.90;;;;;;5095803;28;20578;-73
2022/06/17 09:35:17;;;;;;;2.80;1.93;;;25.80;99.90;;;;;;5094185;28;20633;-73
2022/06/17 09:37:54;;;;;;;2.93;2.73;;;25.70;99.90;;;;;;5096507;28;20666;-73
2022/06/17 09:40:24;;;;;;;4.80;2.30;;;25.60;99.90;;;;;;5096229;28;20663;-74
2022/06/17 09:43:10;;;;;;;2.70;2.17;;;26.00;99.90;;;;;;5096123;28;21063;-74
2022/06/17 09:45:38;;;;;;;4.10;2.20;;;25.70;99.90;;;;;;5096258;28;20940;-74
2022/06/17 09:48:33;;;;;;;6.17;1.70;;;25.90;99.90;;;;;;5096099;28;20657;-73
2022/06/17 09:51:16;;;;;;;3.00;2.80;;;26.10;99.90;;;;;;5095846;28;21100;-73
2022/06/17 09:53:52;;;;;;;2.10;2.00;;;26.40;99.90;;;;;;5095293;28;20577;-74
2022/06/17 09:56:31;;;;;;;4.40;2.30;;;26.80;99.90;;;;;;5093697;28;20709;-73
2022/06/17 09:59:19;;;;;;;3.03;2.70;;;27.10;99.90;;;;;;5095674;28;20569;-73
2022/06/17 10:01:47;;;;;;;4.50;2.00;;;27.20;99.90;;;;;;5095072;28;20570;-73
2022/06/17 10:04:15;;;;;;;8.20;5.73;;;26.80;99.90;;;;;;5094589;28;20624;-72
2022/06/17 10:07:00;;;;;;;2.23;2.03;;;26.90;99.90;;;;;;5094267;28;20625;-72
2022/06/17 10:10:04;;;;;;;2.80;2.10;;;27.00;99.90;;;;;;5095094;28;20644;-72
2022/06/17 10:12:36;;;;;;;6.80;2.17;;;27.00;99.90;;;;;;5095045;28;20610;-72
2022/06/17 10:15:19;;;;;;;4.33;2.93;;;27.20;99.90;;;;;;5095711;28;20602;-73
2022/06/17 10:21:13;;;;;;;2.70;2.50;;;27.50;99.90;;;;;;5095656;28;20670;-73
2022/06/17 10:23:50;;;;;;;2.20;2.10;;;27.00;99.90;;;;;;5095286;28;20598;-74
2022/06/17 10:26:37;;;;;;;2.00;1.77;;;26.60;99.90;;;;;;5094733;28;20701;-74
2022/06/17 10:29:34;;;;;;;4.83;2.20;;;27.10;99.90;;;;;;5095312;28;20621;-74
2022/06/17 10:32:01;;;;;;;1.90;1.80;;;27.50;99.90;;;;;;5095570;28;20581;-74
2022/06/17 10:34:36;;;;;;;2.30;2.10;;;27.80;99.90;;;;;;5094497;28;20604;-74
2022/06/17 10:37:05;;;;;;;3.33;1.80;;;27.90;99.90;;;;;;5095371;28;20579;-74
2022/06/17 10:39:34;;;;;;;2.10;2.00;;;28.00;99.90;;;;;;5095265;28;20617;-74
2022/06/17 10:42:01;;;;;;;2.30;1.97;;;28.10;99.90;;;;;;5094597;28;21187;-73
2022/06/17 10:44:30;;;;;;;3.17;2.07;;;28.10;99.90;;;;;;5093615;28;20621;-74
2022/06/17 10:47:12;;;;;;;5.30;2.30;;;27.80;99.90;;;;;;5095630;28;20636;-74
2022/06/17 10:49:51;;;;;;;2.00;1.90;;;28.00;99.90;;;;;;5093702;28;21081;-74
2022/06/17 10:52:40;;;;;;;2.20;2.10;;;28.20;99.90;;;;;;5095223;28;20577;-74
2022/06/17 10:55:17;;;;;;;2.40;1.97;;;28.30;99.90;;;;;;5094496;28;20585;-74
2022/06/17 10:58:04;;;;;;;2.30;2.20;;;28.30;99.90;;;;;;5094651;28;20695;-74
2022/06/17 11:00:32;;;;;;;2.17;2.00;;;28.30;99.90;;;;;;5094101;28;20608;-74
2022/06/17 11:03:22;;;;;;;4.53;2.10;;;28.40;99.90;;;;;;5095737;28;20998;-73
2022/06/17 11:06:13;;;;;;;2.53;1.70;;;28.60;99.90;;;;;;5094180;28;20620;-73
2022/06/17 11:08:49;;;;;;;1.80;1.70;;;28.50;99.90;;;;;;5093186;28;20671;-73
2022/06/17 11:12:04;;;;;;;2.50;2.30;;;28.60;99.90;;;;;;5093499;28;20613;-73
2022/06/17 11:14:48;;;;;;;1.97;1.87;;;28.90;99.90;;;;;;5092251;28;20640;-73
2022/06/17 11:17:16;;;;;;;3.13;2.20;;;29.10;99.90;;;;;;5094835;28;20573;-73
2022/06/17 11:19:47;;;;;;;2.57;2.30;;;28.80;99.90;;;;;;5094351;28;20605;-73
2022/06/17 11:22:29;;;;;;;3.97;1.80;;;29.10;99.90;;;;;;5093988;28;20643;-73
2022/06/17 11:24:59;;;;;;;2.43;1.90;;;28.80;99.90;;;;;;5093943;28;21090;-73
2022/06/17 11:28:15;;;;;;;2.80;1.90;;;30.00;99.90;;;;;;5094417;28;21014;-73
2022/06/17 11:30:53;;;;;;;2.13;1.73;;;30.90;99.90;;;;;;5071015;28;20629;-73
2022/06/17 11:33:22;;;;;;;2.50;1.70;;;30.90;99.90;;;;;;5095446;28;20770;-74
2022/06/17 11:36:18;;;;;;;2.00;1.90;;;31.20;99.90;;;;;;5094351;28;20678;-74
2022/06/17 11:38:45;;;;;;;1.87;1.77;;;31.30;1.00;;;;;;5094213;28;20609;-73
2022/06/17 11:41:29;;;;;;;4.37;2.17;;;31.10;99.90;;;;;;5093154;28;20612;-74
2022/06/17 11:44:07;;;;;;;2.17;2.07;;;31.60;1.00;;;;;;5093800;28;21025;-74
2022/06/17 11:46:35;;;;;;;2.03;1.90;;;30.90;1.00;;;;;;5094005;28;20570;-74
2022/06/17 11:49:11;;;;;;;2.73;2.53;;;31.80;1.00;;;;;;5093253;28;21232;-74
2022/06/17 11:51:41;;;;;;;3.93;2.10;;;31.40;1.00;;;;;;5093879;28;20581;-74
2022/06/17 11:54:17;;;;;;;3.00;2.00;;;31.60;1.00;;;;;;5093817;28;21208;-74
2022/06/17 11:56:46;;;;;;;2.43;2.33;;;32.70;1.00;;;;;;5097938;28;20573;-74
2022/06/17 11:59:19;;;;;;;2.13;2.03;;;33.10;1.00;;;;;;5096993;28;20675;-74
2022/06/17 12:02:03;;;;;;;2.10;2.00;;;33.20;1.00;;;;;;5097752;28;20585;-71
2022/06/17 12:04:39;;;;;;;5.30;3.30;;;33.00;1.00;;;;;;5097294;28;20574;-71
2022/06/17 12:07:29;;;;;;;1.90;1.80;;;33.50;1.00;;;;;;5096966;28;21199;-72
2022/06/17 12:10:12;;;;;;;2.17;2.07;;;33.10;1.00;;;;;;5096831;28;20570;-71
2022/06/17 12:12:39;;;;;;;4.37;2.27;;;31.90;1.00;;;;;;5097486;28;20570;-71
2022/06/17 12:15:13;;;;;;;4.83;1.80;;;31.10;1.00;;;;;;5079024;28;20632;-72
2022/06/17 12:17:41;;;;;;;2.20;2.00;;;31.30;1.00;;;;;;5096648;28;20635;-72
2022/06/17 12:20:24;;;;;;;2.17;1.83;;;32.40;1.00;;;;;;5097082;28;20639;-71
2022/06/17 12:23:10;;;;;;;2.50;2.30;;;32.30;1.00;;;;;;5096771;28;20712;-71
2022/06/17 12:25:48;;;;;;;4.40;1.83;;;33.30;1.00;;;;;;5097524;28;20574;-72
2022/06/17 12:28:43;;;;;;;4.30;1.83;;;33.80;1.00;;;;;;5096884;28;20569;-73
2022/06/17 12:31:18;;;;;;;3.03;2.00;;;33.40;1.00;;;;;;5096446;28;20973;-73
2022/06/17 12:34:20;;;;;;;7.57;2.47;;;32.50;1.00;;;;;;5096743;28;20667;-73
2022/06/17 12:36:53;;;;;;;2.70;1.53;;;33.10;1.00;;;;;;5096630;28;20609;-74
2022/06/17 12:39:59;;;;;;;2.53;1.90;;;33.60;1.00;;;;;;5096865;28;20637;-73
2022/06/17 12:42:30;;;;;;;3.57;1.70;;;34.90;1.00;;;;;;5096164;28;21148;-73
2022/06/17 12:45:05;;;;;;;2.53;1.87;;;34.40;1.00;;;;;;5096425;28;20569;-73
2022/06/17 12:47:51;;;;;;;2.20;1.93;;;33.50;1.00;;;;;;5096537;28;20633;-74
2022/06/17 12:54:02;;;;;;;2.70;1.83;;;34.50;1.00;;;;;;5096314;28;20624;-74
2022/06/17 12:56:31;;;;;;;4.70;2.07;;;35.10;1.00;;;;;;5096216;28;20581;-74
2022/06/17 12:59:23;;;;;;;4.03;2.00;;;34.70;1.00;;;;;;5094516;28;20657;-74
2022/06/17 13:01:54;;;;;;;7.07;2.30;;;35.30;1.00;;;;;;5095961;28;20725;-73
2022/06/17 13:04:28;;;;;;;2.13;1.80;;;36.30;1.00;;;;;;5095994;28;20925;-73
2022/06/17 13:07:08;;;;;;;2.13;1.80;;;34.80;1.00;;;;;;5094751;28;21066;-73
2022/06/17 13:09:57;;;;;;;3.43;1.83;;;33.20;1.00;;;;;;5094467;28;21269;-73
2022/06/17 13:12:41;;;;;;;1.60;1.50;;;33.30;1.00;;;;;;5095702;28;20572;-73
2022/06/17 13:15:17;;;;;;;10.93;1.87;;;33.00;1.00;;;;;;5095671;28;20675;-73
2022/06/17 13:17:58;;;;;;;1.50;1.40;;;33.30;1.00;;;;;;5095919;28;21079;-74
2022/06/17 13:20:39;;;;;;;4.30;1.80;;;34.30;1.00;;;;;;5095786;28;20628;-73
2022/06/17 13:23:33;;;;;;;1.70;1.60;;;33.70;1.00;;;;;;5099339;28;20585;-74
2022/06/17 13:26:24;;;;;;;2.27;2.07;;;34.50;1.00;;;;;;5096473;28;21096;-73
2022/06/17 13:28:58;;;;;;;2.50;2.30;;;35.30;1.00;;;;;;5095659;28;21124;-73
2022/06/17 13:31:37;;;;;;;1.97;1.87;;;35.20;1.00;;;;;;5095810;28;20599;-74
2022/06/17 13:34:36;;;;;;;1.70;1.60;;;35.30;1.00;;;;;;5095951;28;20561;-74
2022/06/17 13:37:17;;;;;;;1.70;1.60;;;35.80;1.00;;;;;;5088154;28;20629;-74
2022/06/17 13:40:01;;;;;;;2.10;1.90;;;36.70;1.00;;;;;;5095106;28;20687;-73
2022/06/17 13:42:28;;;;;;;2.13;1.87;;;37.30;1.00;;;;;;5093798;28;20730;-74